sensor_id;sensor_type;location;lat;lon;timestamp;P1;durP1;ratioP1;P2;durP2;ratioP2
37455;SDS011;23316;50.718;7.328;2023-10-08T00:02:24;12.43;;;4.45;;
37455;SDS011;23316;50.718;7.328;2023-10-08T00:04:55;9.68;;;4.20;;
37455;SDS011;23316;50.718;7.328;2023-10-08T00:07:23;11.93;;;3.97;;
37455;SDS011;23316;50.718;7.328;2023-10-08T00:09:50;13.68;;;4.20;;
37455;SDS011;23316;50.718;7.328;2023-10-08T00:12:18;14.82;;;3.95;;
37455;SDS011;23316;50.718;7.328;2023-10-08T00:14:47;11.45;;;4.32;;
37455;SDS011;23316;50.718;7.328;2023-10-08T00:17:18;8.88;;;4.05;;
37455;SDS011;23316;50.718;7.328;2023-10-08T00:19:45;9.70;;;3.97;;
37455;SDS011;23316;50.718;7.328;2023-10-08T00:22:17;8.60;;;4.30;;
37455;SDS011;23316;50.718;7.328;2023-10-08T00:24:45;12.20;;;4.25;;
37455;SDS011;23316;50.718;7.328;2023-10-08T00:27:14;11.10;;;4.72;;
37455;SDS011;23316;50.718;7.328;2023-10-08T00:29:43;15.38;;;4.57;;
37455;SDS011;23316;50.718;7.328;2023-10-08T00:32:12;8.05;;;3.90;;
37455;SDS011;23316;50.718;7.328;2023-10-08T00:34:41;10.70;;;4.47;;
37455;SDS011;23316;50.718;7.328;2023-10-08T00:37:09;17.20;;;4.75;;
37455;SDS011;23316;50.718;7.328;2023-10-08T00:39:40;14.75;;;4.78;;
37455;SDS011;23316;50.718;7.328;2023-10-08T00:42:07;9.65;;;3.97;;
37455;SDS011;23316;50.718;7.328;2023-10-08T00:44:34;9.85;;;4.20;;
37455;SDS011;23316;50.718;7.328;2023-10-08T00:47:14;9.05;;;4.10;;
37455;SDS011;23316;50.718;7.328;2023-10-08T00:49:43;12.18;;;4.50;;
37455;SDS011;23316;50.718;7.328;2023-10-08T00:52:28;10.73;;;4.20;;
37455;SDS011;23316;50.718;7.328;2023-10-08T00:55:04;9.07;;;4.38;;
37455;SDS011;23316;50.718;7.328;2023-10-08T00:57:47;12.52;;;4.25;;
37455;SDS011;23316;50.718;7.328;2023-10-08T01:00:19;9.73;;;4.38;;
37455;SDS011;23316;50.718;7.328;2023-10-08T01:02:49;11.93;;;4.35;;
37455;SDS011;23316;50.718;7.328;2023-10-08T01:05:25;8.07;;;3.83;;
37455;SDS011;23316;50.718;7.328;2023-10-08T01:08:08;8.60;;;4.18;;
37455;SDS011;23316;50.718;7.328;2023-10-08T01:10:38;10.45;;;4.10;;
37455;SDS011;23316;50.718;7.328;2023-10-08T01:13:09;12.20;;;4.75;;
37455;SDS011;23316;50.718;7.328;2023-10-08T01:15:41;9.45;;;4.35;;
37455;SDS011;23316;50.718;7.328;2023-10-08T01:18:12;7.75;;;3.83;;
37455;SDS011;23316;50.718;7.328;2023-10-08T01:20:43;8.93;;;4.30;;
37455;SDS011;23316;50.718;7.328;2023-10-08T01:23:19;10.20;;;4.13;;
37455;SDS011;23316;50.718;7.328;2023-10-08T01:25:48;8.05;;;3.83;;
37455;SDS011;23316;50.718;7.328;2023-10-08T01:28:18;7.95;;;3.95;;
37455;SDS011;23316;50.718;7.328;2023-10-08T01:30:51;7.72;;;3.80;;
37455;SDS011;23316;50.718;7.328;2023-10-08T01:33:20;10.43;;;4.40;;
37455;SDS011;23316;50.718;7.328;2023-10-08T01:35:54;7.07;;;3.67;;
37455;SDS011;23316;50.718;7.328;2023-10-08T01:38:28;7.77;;;3.77;;
37455;SDS011;23316;50.718;7.328;2023-10-08T01:40:56;7.05;;;3.50;;
37455;SDS011;23316;50.718;7.328;2023-10-08T01:43:28;12.00;;;4.50;;
37455;SDS011;23316;50.718;7.328;2023-10-08T01:45:56;9.75;;;4.20;;
37455;SDS011;23316;50.718;7.328;2023-10-08T01:48:23;14.18;;;4.50;;
37455;SDS011;23316;50.718;7.328;2023-10-08T01:50:54;9.18;;;3.92;;
37455;SDS011;23316;50.718;7.328;2023-10-08T01:53:26;9.20;;;4.22;;
37455;SDS011;23316;50.718;7.328;2023-10-08T01:55:56;10.77;;;4.25;;
37455;SDS011;23316;50.718;7.328;2023-10-08T01:58:24;8.57;;;3.88;;
37455;SDS011;23316;50.718;7.328;2023-10-08T02:00:53;10.13;;;4.30;;
37455;SDS011;23316;50.718;7.328;2023-10-08T02:03:24;10.23;;;4.07;;
37455;SDS011;23316;50.718;7.328;2023-10-08T02:05:53;10.00;;;4.72;;
37455;SDS011;23316;50.718;7.328;2023-10-08T02:08:24;10.85;;;4.43;;
37455;SDS011;23316;50.718;7.328;2023-10-08T02:10:54;14.80;;;4.18;;
37455;SDS011;23316;50.718;7.328;2023-10-08T02:13:22;9.60;;;4.40;;
37455;SDS011;23316;50.718;7.328;2023-10-08T02:15:49;11.10;;;4.82;;
37455;SDS011;23316;50.718;7.328;2023-10-08T02:18:18;6.80;;;3.72;;
37455;SDS011;23316;50.718;7.328;2023-10-08T02:20:45;8.23;;;4.00;;
37455;SDS011;23316;50.718;7.328;2023-10-08T02:23:13;11.73;;;3.90;;
37455;SDS011;23316;50.718;7.328;2023-10-08T02:25:41;11.32;;;4.63;;
37455;SDS011;23316;50.718;7.328;2023-10-08T02:28:11;8.27;;;4.22;;
37455;SDS011;23316;50.718;7.328;2023-10-08T02:30:40;8.75;;;4.13;;
37455;SDS011;23316;50.718;7.328;2023-10-08T02:33:08;10.75;;;4.40;;
37455;SDS011;23316;50.718;7.328;2023-10-08T02:35:41;10.07;;;4.15;;
37455;SDS011;23316;50.718;7.328;2023-10-08T02:38:09;11.38;;;3.92;;
37455;SDS011;23316;50.718;7.328;2023-10-08T02:40:38;10.93;;;4.28;;
37455;SDS011;23316;50.718;7.328;2023-10-08T02:43:11;11.15;;;4.18;;
37455;SDS011;23316;50.718;7.328;2023-10-08T02:45:40;10.98;;;3.75;;
37455;SDS011;23316;50.718;7.328;2023-10-08T02:48:08;13.38;;;4.93;;
37455;SDS011;23316;50.718;7.328;2023-10-08T02:50:37;12.77;;;4.10;;
37455;SDS011;23316;50.718;7.328;2023-10-08T02:53:06;10.10;;;4.10;;
37455;SDS011;23316;50.718;7.328;2023-10-08T02:55:37;9.38;;;3.92;;
37455;SDS011;23316;50.718;7.328;2023-10-08T02:58:09;9.38;;;3.92;;
37455;SDS011;23316;50.718;7.328;2023-10-08T03:00:40;8.30;;;4.10;;
37455;SDS011;23316;50.718;7.328;2023-10-08T03:03:08;8.68;;;4.15;;
37455;SDS011;23316;50.718;7.328;2023-10-08T03:05:41;13.10;;;4.20;;
37455;SDS011;23316;50.718;7.328;2023-10-08T03:08:11;8.70;;;4.15;;
37455;SDS011;23316;50.718;7.328;2023-10-08T03:10:39;10.90;;;4.78;;
37455;SDS011;23316;50.718;7.328;2023-10-08T03:13:07;11.77;;;4.47;;
37455;SDS011;23316;50.718;7.328;2023-10-08T03:15:37;7.68;;;4.35;;
37455;SDS011;23316;50.718;7.328;2023-10-08T03:18:12;7.97;;;4.28;;
37455;SDS011;23316;50.718;7.328;2023-10-08T03:20:40;11.18;;;4.38;;
37455;SDS011;23316;50.718;7.328;2023-10-08T03:23:11;8.77;;;4.00;;
37455;SDS011;23316;50.718;7.328;2023-10-08T03:25:52;16.35;;;4.22;;
37455;SDS011;23316;50.718;7.328;2023-10-08T03:28:24;8.23;;;3.83;;
37455;SDS011;23316;50.718;7.328;2023-10-08T03:30:54;9.00;;;4.20;;
37455;SDS011;23316;50.718;7.328;2023-10-08T03:33:30;14.13;;;4.57;;
37455;SDS011;23316;50.718;7.328;2023-10-08T03:36:01;9.27;;;4.15;;
37455;SDS011;23316;50.718;7.328;2023-10-08T03:38:36;9.70;;;3.92;;
37455;SDS011;23316;50.718;7.328;2023-10-08T03:41:16;12.15;;;4.50;;
37455;SDS011;23316;50.718;7.328;2023-10-08T03:43:46;11.38;;;3.95;;
37455;SDS011;23316;50.718;7.328;2023-10-08T03:46:23;7.18;;;3.60;;
37455;SDS011;23316;50.718;7.328;2023-10-08T03:48:51;8.07;;;3.53;;
37455;SDS011;23316;50.718;7.328;2023-10-08T03:51:22;10.10;;;4.40;;
37455;SDS011;23316;50.718;7.328;2023-10-08T03:53:53;12.20;;;4.13;;
37455;SDS011;23316;50.718;7.328;2023-10-08T03:56:41;10.38;;;3.85;;
37455;SDS011;23316;50.718;7.328;2023-10-08T03:59:12;7.55;;;3.90;;
37455;SDS011;23316;50.718;7.328;2023-10-08T04:01:41;8.23;;;4.18;;
37455;SDS011;23316;50.718;7.328;2023-10-08T04:04:09;8.65;;;4.10;;
37455;SDS011;23316;50.718;7.328;2023-10-08T04:06:40;8.55;;;4.47;;
37455;SDS011;23316;50.718;7.328;2023-10-08T04:09:14;9.27;;;3.95;;
37455;SDS011;23316;50.718;7.328;2023-10-08T04:11:49;9.02;;;4.47;;
37455;SDS011;23316;50.718;7.328;2023-10-08T04:14:19;10.80;;;4.82;;
37455;SDS011;23316;50.718;7.328;2023-10-08T04:16:50;6.90;;;3.42;;
37455;SDS011;23316;50.718;7.328;2023-10-08T04:19:18;9.48;;;4.32;;
37455;SDS011;23316;50.718;7.328;2023-10-08T04:21:46;11.23;;;4.53;;
37455;SDS011;23316;50.718;7.328;2023-10-08T04:24:20;8.88;;;3.92;;
37455;SDS011;23316;50.718;7.328;2023-10-08T04:26:54;11.30;;;4.32;;
37455;SDS011;23316;50.718;7.328;2023-10-08T04:29:27;9.68;;;4.20;;
37455;SDS011;23316;50.718;7.328;2023-10-08T04:31:59;13.10;;;4.32;;
37455;SDS011;23316;50.718;7.328;2023-10-08T04:34:35;10.02;;;4.47;;
37455;SDS011;23316;50.718;7.328;2023-10-08T04:37:02;12.48;;;4.55;;
37455;SDS011;23316;50.718;7.328;2023-10-08T04:39:38;11.68;;;4.35;;
37455;SDS011;23316;50.718;7.328;2023-10-08T04:42:06;9.10;;;4.80;;
37455;SDS011;23316;50.718;7.328;2023-10-08T04:44:36;9.80;;;3.80;;
37455;SDS011;23316;50.718;7.328;2023-10-08T04:47:07;9.85;;;4.18;;
37455;SDS011;23316;50.718;7.328;2023-10-08T04:49:56;10.95;;;4.15;;
37455;SDS011;23316;50.718;7.328;2023-10-08T04:52:23;8.65;;;3.50;;
37455;SDS011;23316;50.718;7.328;2023-10-08T04:54:55;9.20;;;4.18;;
37455;SDS011;23316;50.718;7.328;2023-10-08T04:57:22;13.85;;;5.05;;
37455;SDS011;23316;50.718;7.328;2023-10-08T04:59:51;8.48;;;4.07;;
37455;SDS011;23316;50.718;7.328;2023-10-08T05:02:24;10.95;;;4.53;;
37455;SDS011;23316;50.718;7.328;2023-10-08T05:05:02;8.18;;;3.92;;
37455;SDS011;23316;50.718;7.328;2023-10-08T05:07:47;11.20;;;4.18;;
37455;SDS011;23316;50.718;7.328;2023-10-08T05:10:27;9.40;;;4.22;;
37455;SDS011;23316;50.718;7.328;2023-10-08T05:13:26;12.68;;;4.70;;
37455;SDS011;23316;50.718;7.328;2023-10-08T05:15:58;9.50;;;4.47;;
37455;SDS011;23316;50.718;7.328;2023-10-08T05:18:38;9.40;;;4.32;;
37455;SDS011;23316;50.718;7.328;2023-10-08T05:21:33;9.45;;;4.20;;
37455;SDS011;23316;50.718;7.328;2023-10-08T05:24:17;14.02;;;7.53;;
37455;SDS011;23316;50.718;7.328;2023-10-08T05:26:53;20.88;;;8.38;;
37455;SDS011;23316;50.718;7.328;2023-10-08T05:29:45;11.35;;;5.00;;
37455;SDS011;23316;50.718;7.328;2023-10-08T05:32:35;10.55;;;4.90;;
37455;SDS011;23316;50.718;7.328;2023-10-08T05:35:18;10.75;;;4.45;;
37455;SDS011;23316;50.718;7.328;2023-10-08T05:38:04;8.27;;;4.30;;
37455;SDS011;23316;50.718;7.328;2023-10-08T05:40:42;10.55;;;5.13;;
37455;SDS011;23316;50.718;7.328;2023-10-08T05:43:27;14.32;;;5.28;;
37455;SDS011;23316;50.718;7.328;2023-10-08T05:46:15;15.52;;;5.80;;
37455;SDS011;23316;50.718;7.328;2023-10-08T05:49:05;14.65;;;7.15;;
37455;SDS011;23316;50.718;7.328;2023-10-08T05:51:53;17.00;;;5.80;;
37455;SDS011;23316;50.718;7.328;2023-10-08T05:54:39;10.77;;;4.82;;
37455;SDS011;23316;50.718;7.328;2023-10-08T05:57:33;10.52;;;5.15;;
37455;SDS011;23316;50.718;7.328;2023-10-08T06:00:12;9.90;;;4.93;;
37455;SDS011;23316;50.718;7.328;2023-10-08T06:02:57;11.25;;;4.80;;
37455;SDS011;23316;50.718;7.328;2023-10-08T06:05:36;8.55;;;4.15;;
37455;SDS011;23316;50.718;7.328;2023-10-08T06:08:30;12.00;;;4.85;;
37455;SDS011;23316;50.718;7.328;2023-10-08T06:11:15;11.90;;;4.32;;
37455;SDS011;23316;50.718;7.328;2023-10-08T06:13:54;10.50;;;4.18;;
37455;SDS011;23316;50.718;7.328;2023-10-08T06:16:26;11.30;;;4.50;;
37455;SDS011;23316;50.718;7.328;2023-10-08T06:19:07;17.67;;;4.78;;
37455;SDS011;23316;50.718;7.328;2023-10-08T06:21:35;11.02;;;4.53;;
37455;SDS011;23316;50.718;7.328;2023-10-08T06:24:06;9.60;;;5.05;;
37455;SDS011;23316;50.718;7.328;2023-10-08T06:26:36;15.13;;;4.63;;
37455;SDS011;23316;50.718;7.328;2023-10-08T06:29:09;10.55;;;4.72;;
37455;SDS011;23316;50.718;7.328;2023-10-08T06:34:21;8.82;;;4.07;;
37455;SDS011;23316;50.718;7.328;2023-10-08T06:36:53;12.35;;;4.80;;
37455;SDS011;23316;50.718;7.328;2023-10-08T06:39:24;15.55;;;5.00;;
37455;SDS011;23316;50.718;7.328;2023-10-08T06:41:58;12.02;;;4.70;;
37455;SDS011;23316;50.718;7.328;2023-10-08T06:44:28;10.25;;;4.43;;
37455;SDS011;23316;50.718;7.328;2023-10-08T06:46:57;9.98;;;4.43;;
37455;SDS011;23316;50.718;7.328;2023-10-08T06:49:24;8.38;;;3.72;;
37455;SDS011;23316;50.718;7.328;2023-10-08T06:51:53;11.90;;;4.80;;
37455;SDS011;23316;50.718;7.328;2023-10-08T06:54:21;11.90;;;4.95;;
37455;SDS011;23316;50.718;7.328;2023-10-08T06:56:56;15.25;;;5.32;;
37455;SDS011;23316;50.718;7.328;2023-10-08T06:59:25;16.52;;;5.00;;
37455;SDS011;23316;50.718;7.328;2023-10-08T07:01:57;13.50;;;4.82;;
37455;SDS011;23316;50.718;7.328;2023-10-08T07:04:24;11.98;;;4.28;;
37455;SDS011;23316;50.718;7.328;2023-10-08T07:06:52;19.30;;;5.28;;
37455;SDS011;23316;50.718;7.328;2023-10-08T07:09:19;13.88;;;4.93;;
37455;SDS011;23316;50.718;7.328;2023-10-08T07:11:56;11.07;;;4.85;;
37455;SDS011;23316;50.718;7.328;2023-10-08T07:14:30;11.93;;;4.80;;
37455;SDS011;23316;50.718;7.328;2023-10-08T07:16:59;12.25;;;4.80;;
37455;SDS011;23316;50.718;7.328;2023-10-08T07:19:32;14.95;;;5.07;;
37455;SDS011;23316;50.718;7.328;2023-10-08T07:22:02;9.27;;;4.47;;
37455;SDS011;23316;50.718;7.328;2023-10-08T07:24:31;17.10;;;4.57;;
37455;SDS011;23316;50.718;7.328;2023-10-08T07:27:02;9.13;;;4.55;;
37455;SDS011;23316;50.718;7.328;2023-10-08T07:29:34;11.65;;;4.75;;
37455;SDS011;23316;50.718;7.328;2023-10-08T07:32:02;15.18;;;5.38;;
37455;SDS011;23316;50.718;7.328;2023-10-08T07:34:35;13.63;;;5.03;;
37455;SDS011;23316;50.718;7.328;2023-10-08T07:37:03;12.63;;;5.68;;
37455;SDS011;23316;50.718;7.328;2023-10-08T07:39:31;15.55;;;5.55;;
37455;SDS011;23316;50.718;7.328;2023-10-08T07:42:04;11.15;;;4.65;;
37455;SDS011;23316;50.718;7.328;2023-10-08T07:44:33;12.43;;;4.50;;
37455;SDS011;23316;50.718;7.328;2023-10-08T07:47:02;11.15;;;5.00;;
37455;SDS011;23316;50.718;7.328;2023-10-08T07:49:35;14.77;;;5.17;;
37455;SDS011;23316;50.718;7.328;2023-10-08T07:52:03;12.27;;;5.57;;
37455;SDS011;23316;50.718;7.328;2023-10-08T07:54:31;16.00;;;5.05;;
37455;SDS011;23316;50.718;7.328;2023-10-08T07:57:00;12.98;;;5.22;;
37455;SDS011;23316;50.718;7.328;2023-10-08T07:59:36;12.70;;;5.15;;
37455;SDS011;23316;50.718;7.328;2023-10-08T08:02:07;10.35;;;4.72;;
37455;SDS011;23316;50.718;7.328;2023-10-08T08:04:36;9.85;;;4.75;;
37455;SDS011;23316;50.718;7.328;2023-10-08T08:07:05;9.48;;;4.68;;
37455;SDS011;23316;50.718;7.328;2023-10-08T08:09:32;8.93;;;4.47;;
37455;SDS011;23316;50.718;7.328;2023-10-08T08:12:04;11.07;;;4.93;;
37455;SDS011;23316;50.718;7.328;2023-10-08T08:14:37;10.25;;;4.75;;
37455;SDS011;23316;50.718;7.328;2023-10-08T08:17:07;10.50;;;5.32;;
37455;SDS011;23316;50.718;7.328;2023-10-08T08:19:40;11.68;;;5.38;;
37455;SDS011;23316;50.718;7.328;2023-10-08T08:22:09;14.20;;;6.20;;
37455;SDS011;23316;50.718;7.328;2023-10-08T08:24:40;14.40;;;5.70;;
37455;SDS011;23316;50.718;7.328;2023-10-08T08:27:10;15.70;;;5.82;;
37455;SDS011;23316;50.718;7.328;2023-10-08T08:29:50;15.52;;;5.35;;
37455;SDS011;23316;50.718;7.328;2023-10-08T08:32:21;13.20;;;5.53;;
37455;SDS011;23316;50.718;7.328;2023-10-08T08:34:49;10.80;;;5.32;;
37455;SDS011;23316;50.718;7.328;2023-10-08T08:37:17;14.13;;;5.55;;
37455;SDS011;23316;50.718;7.328;2023-10-08T08:39:47;11.20;;;4.90;;
37455;SDS011;23316;50.718;7.328;2023-10-08T08:42:15;15.15;;;5.70;;
37455;SDS011;23316;50.718;7.328;2023-10-08T08:44:46;13.55;;;5.35;;
37455;SDS011;23316;50.718;7.328;2023-10-08T08:47:17;13.27;;;5.65;;
37455;SDS011;23316;50.718;7.328;2023-10-08T08:49:50;17.55;;;5.97;;
37455;SDS011;23316;50.718;7.328;2023-10-08T08:52:20;15.15;;;5.78;;
37455;SDS011;23316;50.718;7.328;2023-10-08T08:54:48;20.17;;;6.78;;
37455;SDS011;23316;50.718;7.328;2023-10-08T08:57:17;19.00;;;5.95;;
37455;SDS011;23316;50.718;7.328;2023-10-08T08:59:47;13.73;;;5.38;;
37455;SDS011;23316;50.718;7.328;2023-10-08T09:04:48;15.35;;;5.40;;
37455;SDS011;23316;50.718;7.328;2023-10-08T09:07:19;16.98;;;5.97;;
37455;SDS011;23316;50.718;7.328;2023-10-08T09:09:48;15.70;;;5.97;;
37455;SDS011;23316;50.718;7.328;2023-10-08T09:12:16;18.33;;;5.65;;
37455;SDS011;23316;50.718;7.328;2023-10-08T09:14:43;13.48;;;6.07;;
37455;SDS011;23316;50.718;7.328;2023-10-08T09:17:13;12.13;;;5.90;;
37455;SDS011;23316;50.718;7.328;2023-10-08T09:19:45;17.38;;;5.95;;
37455;SDS011;23316;50.718;7.328;2023-10-08T09:22:12;16.92;;;6.88;;
37455;SDS011;23316;50.718;7.328;2023-10-08T09:24:41;16.85;;;6.47;;
37455;SDS011;23316;50.718;7.328;2023-10-08T09:27:09;14.23;;;5.90;;
37455;SDS011;23316;50.718;7.328;2023-10-08T09:29:39;19.15;;;5.88;;
37455;SDS011;23316;50.718;7.328;2023-10-08T09:32:08;22.05;;;7.47;;
37455;SDS011;23316;50.718;7.328;2023-10-08T09:34:36;18.48;;;6.72;;
37455;SDS011;23316;50.718;7.328;2023-10-08T09:37:05;16.40;;;6.22;;
37455;SDS011;23316;50.718;7.328;2023-10-08T09:39:33;20.58;;;6.82;;
37455;SDS011;23316;50.718;7.328;2023-10-08T09:42:02;21.27;;;7.07;;
37455;SDS011;23316;50.718;7.328;2023-10-08T09:44:31;27.63;;;6.68;;
37455;SDS011;23316;50.718;7.328;2023-10-08T09:47:02;17.58;;;7.25;;
37455;SDS011;23316;50.718;7.328;2023-10-08T09:49:31;17.90;;;7.28;;
37455;SDS011;23316;50.718;7.328;2023-10-08T09:52:02;20.55;;;6.40;;
37455;SDS011;23316;50.718;7.328;2023-10-08T09:54:35;18.90;;;6.70;;
37455;SDS011;23316;50.718;7.328;2023-10-08T09:57:09;17.33;;;7.68;;
37455;SDS011;23316;50.718;7.328;2023-10-08T09:59:37;18.95;;;7.03;;
37455;SDS011;23316;50.718;7.328;2023-10-08T10:02:06;24.15;;;7.05;;
37455;SDS011;23316;50.718;7.328;2023-10-08T10:04:37;16.73;;;7.10;;
37455;SDS011;23316;50.718;7.328;2023-10-08T10:07:11;19.77;;;7.97;;
37455;SDS011;23316;50.718;7.328;2023-10-08T10:09:42;30.35;;;8.45;;
37455;SDS011;23316;50.718;7.328;2023-10-08T10:12:12;18.80;;;6.97;;
37455;SDS011;23316;50.718;7.328;2023-10-08T10:14:45;18.90;;;6.82;;
37455;SDS011;23316;50.718;7.328;2023-10-08T10:17:14;23.50;;;7.78;;
37455;SDS011;23316;50.718;7.328;2023-10-08T10:19:44;20.42;;;7.15;;
37455;SDS011;23316;50.718;7.328;2023-10-08T10:22:14;25.25;;;7.50;;
37455;SDS011;23316;50.718;7.328;2023-10-08T10:24:54;26.15;;;7.20;;
37455;SDS011;23316;50.718;7.328;2023-10-08T10:27:22;25.98;;;8.38;;
37455;SDS011;23316;50.718;7.328;2023-10-08T10:29:50;19.60;;;6.20;;
37455;SDS011;23316;50.718;7.328;2023-10-08T10:32:18;34.65;;;9.00;;
37455;SDS011;23316;50.718;7.328;2023-10-08T10:34:45;24.95;;;8.50;;
37455;SDS011;23316;50.718;7.328;2023-10-08T10:37:18;20.88;;;9.23;;
37455;SDS011;23316;50.718;7.328;2023-10-08T10:39:53;28.77;;;9.38;;
37455;SDS011;23316;50.718;7.328;2023-10-08T10:42:24;29.00;;;10.32;;
37455;SDS011;23316;50.718;7.328;2023-10-08T10:44:53;27.50;;;11.05;;
37455;SDS011;23316;50.718;7.328;2023-10-08T10:47:24;38.10;;;11.73;;
37455;SDS011;23316;50.718;7.328;2023-10-08T10:50:08;24.40;;;9.00;;
37455;SDS011;23316;50.718;7.328;2023-10-08T10:52:53;33.72;;;11.05;;
37455;SDS011;23316;50.718;7.328;2023-10-08T10:55:22;27.33;;;11.52;;
37455;SDS011;23316;50.718;7.328;2023-10-08T10:57:57;40.13;;;13.48;;
37455;SDS011;23316;50.718;7.328;2023-10-08T11:00:37;25.92;;;10.35;;
37455;SDS011;23316;50.718;7.328;2023-10-08T11:03:13;33.17;;;12.98;;
37455;SDS011;23316;50.718;7.328;2023-10-08T11:05:44;36.47;;;13.05;;
37455;SDS011;23316;50.718;7.328;2023-10-08T11:08:18;38.25;;;12.77;;
37455;SDS011;23316;50.718;7.328;2023-10-08T11:10:48;30.15;;;12.52;;
37455;SDS011;23316;50.718;7.328;2023-10-08T11:13:18;26.85;;;11.48;;
37455;SDS011;23316;50.718;7.328;2023-10-08T11:15:46;38.28;;;13.55;;
37455;SDS011;23316;50.718;7.328;2023-10-08T11:18:18;32.58;;;13.93;;
37455;SDS011;23316;50.718;7.328;2023-10-08T11:20:47;33.33;;;14.05;;
37455;SDS011;23316;50.718;7.328;2023-10-08T11:26:07;35.05;;;14.15;;
37455;SDS011;23316;50.718;7.328;2023-10-08T11:28:34;33.22;;;14.70;;
37455;SDS011;23316;50.718;7.328;2023-10-08T11:31:08;36.00;;;16.00;;
37455;SDS011;23316;50.718;7.328;2023-10-08T11:33:37;37.58;;;15.75;;
37455;SDS011;23316;50.718;7.328;2023-10-08T11:36:07;33.92;;;13.38;;
37455;SDS011;23316;50.718;7.328;2023-10-08T11:38:45;32.92;;;13.85;;
37455;SDS011;23316;50.718;7.328;2023-10-08T11:41:16;29.98;;;14.68;;
37455;SDS011;23316;50.718;7.328;2023-10-08T11:43:53;30.27;;;12.50;;
37455;SDS011;23316;50.718;7.328;2023-10-08T11:46:24;33.00;;;13.25;;
37455;SDS011;23316;50.718;7.328;2023-10-08T11:48:53;32.05;;;13.32;;
37455;SDS011;23316;50.718;7.328;2023-10-08T11:51:24;33.40;;;13.35;;
37455;SDS011;23316;50.718;7.328;2023-10-08T11:53:52;24.10;;;11.73;;
37455;SDS011;23316;50.718;7.328;2023-10-08T11:56:19;35.92;;;13.80;;
37455;SDS011;23316;50.718;7.328;2023-10-08T11:58:49;30.38;;;12.65;;
37455;SDS011;23316;50.718;7.328;2023-10-08T12:01:18;35.88;;;14.88;;
37455;SDS011;23316;50.718;7.328;2023-10-08T12:03:45;31.17;;;12.07;;
37455;SDS011;23316;50.718;7.328;2023-10-08T12:06:15;37.63;;;13.65;;
37455;SDS011;23316;50.718;7.328;2023-10-08T12:08:45;31.08;;;13.35;;
37455;SDS011;23316;50.718;7.328;2023-10-08T12:11:14;28.92;;;13.48;;
37455;SDS011;23316;50.718;7.328;2023-10-08T12:13:42;28.55;;;13.15;;
37455;SDS011;23316;50.718;7.328;2023-10-08T12:16:11;30.33;;;14.20;;
37455;SDS011;23316;50.718;7.328;2023-10-08T12:18:44;31.15;;;13.63;;
37455;SDS011;23316;50.718;7.328;2023-10-08T12:21:14;29.80;;;13.70;;
37455;SDS011;23316;50.718;7.328;2023-10-08T12:23:43;31.73;;;15.25;;
37455;SDS011;23316;50.718;7.328;2023-10-08T12:26:12;33.38;;;14.25;;
37455;SDS011;23316;50.718;7.328;2023-10-08T12:28:43;42.20;;;15.52;;
37455;SDS011;23316;50.718;7.328;2023-10-08T12:31:11;36.22;;;15.00;;
37455;SDS011;23316;50.718;7.328;2023-10-08T12:33:41;31.60;;;15.15;;
37455;SDS011;23316;50.718;7.328;2023-10-08T12:36:10;30.08;;;15.25;;
37455;SDS011;23316;50.718;7.328;2023-10-08T12:38:38;33.80;;;14.07;;
37455;SDS011;23316;50.718;7.328;2023-10-08T12:41:08;30.35;;;13.80;;
37455;SDS011;23316;50.718;7.328;2023-10-08T12:43:38;32.85;;;13.25;;
37455;SDS011;23316;50.718;7.328;2023-10-08T12:46:09;26.42;;;12.30;;
37455;SDS011;23316;50.718;7.328;2023-10-08T12:48:53;34.83;;;13.80;;
37455;SDS011;23316;50.718;7.328;2023-10-08T12:51:21;27.65;;;11.85;;
37455;SDS011;23316;50.718;7.328;2023-10-08T12:53:50;24.92;;;11.45;;
37455;SDS011;23316;50.718;7.328;2023-10-08T12:56:24;30.67;;;12.65;;
37455;SDS011;23316;50.718;7.328;2023-10-08T12:59:01;28.38;;;12.05;;
37455;SDS011;23316;50.718;7.328;2023-10-08T13:01:31;30.02;;;13.18;;
37455;SDS011;23316;50.718;7.328;2023-10-08T13:04:01;32.47;;;13.57;;
37455;SDS011;23316;50.718;7.328;2023-10-08T13:06:33;30.73;;;12.98;;
37455;SDS011;23316;50.718;7.328;2023-10-08T13:20:18;30.90;;;12.88;;
37455;SDS011;23316;50.718;7.328;2023-10-08T13:22:46;29.67;;;12.55;;
37455;SDS011;23316;50.718;7.328;2023-10-08T13:25:14;29.13;;;13.07;;
37455;SDS011;23316;50.718;7.328;2023-10-08T13:27:42;32.35;;;13.40;;
37455;SDS011;23316;50.718;7.328;2023-10-08T13:30:10;31.95;;;13.55;;
37455;SDS011;23316;50.718;7.328;2023-10-08T13:32:38;33.20;;;13.57;;
37455;SDS011;23316;50.718;7.328;2023-10-08T13:35:05;28.27;;;13.20;;
37455;SDS011;23316;50.718;7.328;2023-10-08T13:37:35;29.33;;;13.48;;
37455;SDS011;23316;50.718;7.328;2023-10-08T13:40:02;27.52;;;12.38;;
37455;SDS011;23316;50.718;7.328;2023-10-08T13:42:30;29.75;;;12.43;;
37455;SDS011;23316;50.718;7.328;2023-10-08T13:44:57;34.67;;;12.63;;
37455;SDS011;23316;50.718;7.328;2023-10-08T13:47:25;29.67;;;12.43;;
37455;SDS011;23316;50.718;7.328;2023-10-08T13:49:53;26.67;;;13.48;;
37455;SDS011;23316;50.718;7.328;2023-10-08T13:52:23;30.95;;;12.82;;
37455;SDS011;23316;50.718;7.328;2023-10-08T13:54:53;30.83;;;13.10;;
37455;SDS011;23316;50.718;7.328;2023-10-08T13:57:21;30.00;;;12.70;;
37455;SDS011;23316;50.718;7.328;2023-10-08T13:59:52;30.42;;;12.90;;
37455;SDS011;23316;50.718;7.328;2023-10-08T14:02:19;26.88;;;11.65;;
37455;SDS011;23316;50.718;7.328;2023-10-08T14:04:47;27.88;;;12.65;;
37455;SDS011;23316;50.718;7.328;2023-10-08T14:07:16;31.42;;;13.07;;
37455;SDS011;23316;50.718;7.328;2023-10-08T14:09:44;30.48;;;11.90;;
37455;SDS011;23316;50.718;7.328;2023-10-08T14:12:13;27.25;;;11.85;;
37455;SDS011;23316;50.718;7.328;2023-10-08T14:14:41;29.20;;;11.88;;
37455;SDS011;23316;50.718;7.328;2023-10-08T14:17:11;29.95;;;12.18;;
37455;SDS011;23316;50.718;7.328;2023-10-08T14:19:41;30.50;;;12.20;;
37455;SDS011;23316;50.718;7.328;2023-10-08T14:22:25;27.80;;;11.70;;
37455;SDS011;23316;50.718;7.328;2023-10-08T14:24:52;26.38;;;11.95;;
37455;SDS011;23316;50.718;7.328;2023-10-08T14:27:26;25.67;;;11.43;;
37455;SDS011;23316;50.718;7.328;2023-10-08T14:29:57;30.50;;;12.13;;
37455;SDS011;23316;50.718;7.328;2023-10-08T14:32:26;26.83;;;10.98;;
37455;SDS011;23316;50.718;7.328;2023-10-08T14:34:54;28.67;;;13.15;;
37455;SDS011;23316;50.718;7.328;2023-10-08T14:37:38;25.05;;;11.85;;
37455;SDS011;23316;50.718;7.328;2023-10-08T14:40:24;26.10;;;12.13;;
37455;SDS011;23316;50.718;7.328;2023-10-08T14:43:10;31.10;;;12.43;;
37455;SDS011;23316;50.718;7.328;2023-10-08T14:45:38;31.10;;;12.65;;
37455;SDS011;23316;50.718;7.328;2023-10-08T14:48:06;30.80;;;13.35;;
37455;SDS011;23316;50.718;7.328;2023-10-08T14:50:36;23.25;;;12.18;;
37455;SDS011;23316;50.718;7.328;2023-10-08T14:53:04;32.30;;;12.50;;
37455;SDS011;23316;50.718;7.328;2023-10-08T14:55:32;22.95;;;10.18;;
37455;SDS011;23316;50.718;7.328;2023-10-08T14:58:01;26.20;;;11.80;;
37455;SDS011;23316;50.718;7.328;2023-10-08T15:00:34;25.65;;;11.93;;
37455;SDS011;23316;50.718;7.328;2023-10-08T15:03:02;29.05;;;10.93;;
37455;SDS011;23316;50.718;7.328;2023-10-08T15:05:30;22.52;;;11.25;;
37455;SDS011;23316;50.718;7.328;2023-10-08T15:07:58;29.15;;;11.68;;
37455;SDS011;23316;50.718;7.328;2023-10-08T15:10:25;23.02;;;11.52;;
37455;SDS011;23316;50.718;7.328;2023-10-08T15:12:54;25.33;;;12.30;;
37455;SDS011;23316;50.718;7.328;2023-10-08T15:15:22;27.60;;;11.57;;
37455;SDS011;23316;50.718;7.328;2023-10-08T15:17:52;30.63;;;11.82;;
37455;SDS011;23316;50.718;7.328;2023-10-08T15:20:20;27.50;;;11.38;;